sensor_id;sensor_type;location;lat;lon;timestamp;temperature;humidity
80212;DHT22;69530;37.974;23.708;2023-05-17T00:01:50;24.50;47.80
80212;DHT22;69530;37.974;23.708;2023-05-17T00:04:16;24.40;47.60
80212;DHT22;69530;37.974;23.708;2023-05-17T00:06:42;24.40;47.70
80212;DHT22;69530;37.974;23.708;2023-05-17T00:09:08;24.50;47.80
80212;DHT22;69530;37.974;23.708;2023-05-17T00:11:34;24.40;47.70
80212;DHT22;69530;37.974;23.708;2023-05-17T00:14:00;24.50;47.90
80212;DHT22;69530;37.974;23.708;2023-05-17T00:16:26;24.40;47.70
80212;DHT22;69530;37.974;23.708;2023-05-17T00:18:51;24.40;47.70
80212;DHT22;69530;37.974;23.708;2023-05-17T00:21:17;24.40;47.70
80212;DHT22;69530;37.974;23.708;2023-05-17T00:23:43;24.40;47.70
80212;DHT22;69530;37.974;23.708;2023-05-17T00:26:09;24.40;47.60
80212;DHT22;69530;37.974;23.708;2023-05-17T00:28:34;24.40;47.50
80212;DHT22;69530;37.974;23.708;2023-05-17T00:31:00;24.40;47.40
80212;DHT22;69530;37.974;23.708;2023-05-17T00:33:26;24.40;47.20
80212;DHT22;69530;37.974;23.708;2023-05-17T00:35:52;24.40;47.20
80212;DHT22;69530;37.974;23.708;2023-05-17T00:38:17;24.40;48.00
80212;DHT22;69530;37.974;23.708;2023-05-17T00:40:43;24.40;46.80
80212;DHT22;69530;37.974;23.708;2023-05-17T00:43:08;24.30;46.60
80212;DHT22;69530;37.974;23.708;2023-05-17T00:45:34;24.30;46.60
80212;DHT22;69530;37.974;23.708;2023-05-17T00:48:00;24.30;46.40
80212;DHT22;69530;37.974;23.708;2023-05-17T00:50:26;24.30;46.30
80212;DHT22;69530;37.974;23.708;2023-05-17T00:52:52;24.30;46.30
80212;DHT22;69530;37.974;23.708;2023-05-17T00:55:18;24.40;46.20
80212;DHT22;69530;37.974;23.708;2023-05-17T00:57:47;24.40;46.10
80212;DHT22;69530;37.974;23.708;2023-05-17T01:00:13;24.30;46.00
80212;DHT22;69530;37.974;23.708;2023-05-17T01:02:39;24.30;46.00
80212;DHT22;69530;37.974;23.708;2023-05-17T01:05:05;24.30;46.00
80212;DHT22;69530;37.974;23.708;2023-05-17T01:07:31;24.30;45.80
80212;DHT22;69530;37.974;23.708;2023-05-17T01:09:57;24.30;45.70
80212;DHT22;69530;37.974;23.708;2023-05-17T01:20:41;24.30;45.60
80212;DHT22;69530;37.974;23.708;2023-05-17T01:23:19;24.30;45.50
80212;DHT22;69530;37.974;23.708;2023-05-17T01:26:06;24.30;45.50
80212;DHT22;69530;37.974;23.708;2023-05-17T01:28:33;24.30;45.40
80212;DHT22;69530;37.974;23.708;2023-05-17T01:31:02;24.30;45.30
80212;DHT22;69530;37.974;23.708;2023-05-17T01:33:28;24.30;45.30
80212;DHT22;69530;37.974;23.708;2023-05-17T01:35:55;24.30;45.20
80212;DHT22;69530;37.974;23.708;2023-05-17T01:38:21;24.20;45.10
80212;DHT22;69530;37.974;23.708;2023-05-17T01:43:49;24.30;45.10
80212;DHT22;69530;37.974;23.708;2023-05-17T01:46:32;24.30;45.10
80212;DHT22;69530;37.974;23.708;2023-05-17T01:52:04;24.30;45.10
80212;DHT22;69530;37.974;23.708;2023-05-17T01:54:38;24.20;45.10
80212;DHT22;69530;37.974;23.708;2023-05-17T01:57:09;24.20;45.00
80212;DHT22;69530;37.974;23.708;2023-05-17T01:59:37;24.30;45.00
80212;DHT22;69530;37.974;23.708;2023-05-17T02:02:03;24.20;45.00
80212;DHT22;69530;37.974;23.708;2023-05-17T02:04:34;24.20;45.10
80212;DHT22;69530;37.974;23.708;2023-05-17T02:07:01;24.20;45.00
80212;DHT22;69530;37.974;23.708;2023-05-17T02:09:26;24.30;45.10
80212;DHT22;69530;37.974;23.708;2023-05-17T02:11:52;24.20;45.00
80212;DHT22;69530;37.974;23.708;2023-05-17T02:14:18;24.20;45.00
80212;DHT22;69530;37.974;23.708;2023-05-17T02:16:43;24.20;45.00
80212;DHT22;69530;37.974;23.708;2023-05-17T02:19:09;24.20;44.90
80212;DHT22;69530;37.974;23.708;2023-05-17T02:21:37;24.30;45.00
80212;DHT22;69530;37.974;23.708;2023-05-17T02:24:03;24.30;45.00
80212;DHT22;69530;37.974;23.708;2023-05-17T02:26:29;24.20;44.90
80212;DHT22;69530;37.974;23.708;2023-05-17T02:28:56;24.20;44.90
80212;DHT22;69530;37.974;23.708;2023-05-17T02:31:22;24.20;44.90
80212;DHT22;69530;37.974;23.708;2023-05-17T02:33:52;24.20;44.80
80212;DHT22;69530;37.974;23.708;2023-05-17T02:36:18;24.20;44.80
80212;DHT22;69530;37.974;23.708;2023-05-17T02:38:43;24.20;44.80
80212;DHT22;69530;37.974;23.708;2023-05-17T02:41:09;24.20;44.80
80212;DHT22;69530;37.974;23.708;2023-05-17T02:43:35;24.20;44.90
80212;DHT22;69530;37.974;23.708;2023-05-17T02:46:01;24.20;44.80
80212;DHT22;69530;37.974;23.708;2023-05-17T02:48:26;24.20;45.90
80212;DHT22;69530;37.974;23.708;2023-05-17T02:50:52;24.20;44.80
80212;DHT22;69530;37.974;23.708;2023-05-17T02:53:18;24.20;44.80
80212;DHT22;69530;37.974;23.708;2023-05-17T02:55:43;24.30;44.80
80212;DHT22;69530;37.974;23.708;2023-05-17T02:58:09;24.30;44.70
80212;DHT22;69530;37.974;23.708;2023-05-17T03:00:35;24.20;44.80
80212;DHT22;69530;37.974;23.708;2023-05-17T03:03:00;24.20;44.80
80212;DHT22;69530;37.974;23.708;2023-05-17T03:05:26;24.20;44.70
80212;DHT22;69530;37.974;23.708;2023-05-17T03:07:52;24.20;44.70
80212;DHT22;69530;37.974;23.708;2023-05-17T03:10:17;24.20;44.50
80212;DHT22;69530;37.974;23.708;2023-05-17T03:12:43;24.20;44.50
80212;DHT22;69530;37.974;23.708;2023-05-17T03:15:09;24.20;44.50
80212;DHT22;69530;37.974;23.708;2023-05-17T03:17:35;24.20;44.50
80212;DHT22;69530;37.974;23.708;2023-05-17T03:20:01;24.30;44.50
80212;DHT22;69530;37.974;23.708;2023-05-17T03:22:27;24.20;44.50
80212;DHT22;69530;37.974;23.708;2023-05-17T03:24:52;24.20;44.40
80212;DHT22;69530;37.974;23.708;2023-05-17T03:27:18;24.20;44.30
80212;DHT22;69530;37.974;23.708;2023-05-17T03:29:44;24.20;44.30
80212;DHT22;69530;37.974;23.708;2023-05-17T03:32:09;24.20;44.30
80212;DHT22;69530;37.974;23.708;2023-05-17T03:34:35;24.20;44.30
80212;DHT22;69530;37.974;23.708;2023-05-17T03:37:01;24.20;44.20
80212;DHT22;69530;37.974;23.708;2023-05-17T03:39:26;24.20;44.30
80212;DHT22;69530;37.974;23.708;2023-05-17T03:41:52;24.20;44.10
80212;DHT22;69530;37.974;23.708;2023-05-17T03:44:18;24.30;44.00
80212;DHT22;69530;37.974;23.708;2023-05-17T03:46:43;24.30;43.90
80212;DHT22;69530;37.974;23.708;2023-05-17T03:49:09;24.40;43.70
80212;DHT22;69530;37.974;23.708;2023-05-17T03:51:35;24.60;43.50
80212;DHT22;69530;37.974;23.708;2023-05-17T03:54:01;24.70;43.10
80212;DHT22;69530;37.974;23.708;2023-05-17T03:56:26;24.80;42.70
80212;DHT22;69530;37.974;23.708;2023-05-17T03:58:52;25.00;42.10
80212;DHT22;69530;37.974;23.708;2023-05-17T04:01:18;25.20;41.70
80212;DHT22;69530;37.974;23.708;2023-05-17T04:03:45;25.30;41.20
80212;DHT22;69530;37.974;23.708;2023-05-17T04:06:12;25.60;41.00
80212;DHT22;69530;37.974;23.708;2023-05-17T04:08:39;25.80;40.60
80212;DHT22;69530;37.974;23.708;2023-05-17T04:11:05;26.00;40.10
80212;DHT22;69530;37.974;23.708;2023-05-17T04:13:40;26.20;39.60
80212;DHT22;69530;37.974;23.708;2023-05-17T04:16:07;26.40;39.10
80212;DHT22;69530;37.974;23.708;2023-05-17T04:18:37;26.60;38.70
80212;DHT22;69530;37.974;23.708;2023-05-17T04:21:04;26.70;38.50
80212;DHT22;69530;37.974;23.708;2023-05-17T04:23:31;26.80;38.80
80212;DHT22;69530;37.974;23.708;2023-05-17T04:25:57;26.80;39.20
80212;DHT22;69530;37.974;23.708;2023-05-17T04:28:23;26.80;39.30
80212;DHT22;69530;37.974;23.708;2023-05-17T04:30:50;26.90;39.00
80212;DHT22;69530;37.974;23.708;2023-05-17T04:33:17;27.10;38.50
80212;DHT22;69530;37.974;23.708;2023-05-17T04:35:43;27.40;37.50
80212;DHT22;69530;37.974;23.708;2023-05-17T04:38:09;27.90;36.60
80212;DHT22;69530;37.974;23.708;2023-05-17T04:40:36;28.30;35.80
80212;DHT22;69530;37.974;23.708;2023-05-17T04:43:01;28.40;35.30
80212;DHT22;69530;37.974;23.708;2023-05-17T04:45:27;28.40;35.20
80212;DHT22;69530;37.974;23.708;2023-05-17T04:47:53;28.40;35.00
80212;DHT22;69530;37.974;23.708;2023-05-17T04:50:19;28.40;34.90
80212;DHT22;69530;37.974;23.708;2023-05-17T04:52:46;28.20;34.70
80212;DHT22;69530;37.974;23.708;2023-05-17T04:55:12;28.00;34.80
80212;DHT22;69530;37.974;23.708;2023-05-17T04:57:38;27.80;35.10
80212;DHT22;69530;37.974;23.708;2023-05-17T05:00:05;27.60;35.30
80212;DHT22;69530;37.974;23.708;2023-05-17T05:02:32;27.40;35.50
80212;DHT22;69530;37.974;23.708;2023-05-17T05:04:58;27.30;35.60
80212;DHT22;69530;37.974;23.708;2023-05-17T05:07:23;27.20;35.60
80212;DHT22;69530;37.974;23.708;2023-05-17T05:09:50;27.10;35.70
80212;DHT22;69530;37.974;23.708;2023-05-17T05:12:15;27.00;35.90
80212;DHT22;69530;37.974;23.708;2023-05-17T05:14:41;26.90;36.00
80212;DHT22;69530;37.974;23.708;2023-05-17T05:17:07;26.80;36.10
80212;DHT22;69530;37.974;23.708;2023-05-17T05:19:33;26.70;36.40
80212;DHT22;69530;37.974;23.708;2023-05-17T05:21:59;26.60;36.60
80212;DHT22;69530;37.974;23.708;2023-05-17T05:24:25;26.60;36.80
80212;DHT22;69530;37.974;23.708;2023-05-17T05:26:50;26.60;36.80
80212;DHT22;69530;37.974;23.708;2023-05-17T05:29:17;26.50;36.70
80212;DHT22;69530;37.974;23.708;2023-05-17T05:31:43;26.50;36.70
80212;DHT22;69530;37.974;23.708;2023-05-17T05:34:09;26.50;36.70
80212;DHT22;69530;37.974;23.708;2023-05-17T05:36:34;26.50;36.70
80212;DHT22;69530;37.974;23.708;2023-05-17T05:39:01;26.40;36.50
80212;DHT22;69530;37.974;23.708;2023-05-17T05:41:26;26.50;36.50
80212;DHT22;69530;37.974;23.708;2023-05-17T05:43:52;26.40;36.30
80212;DHT22;69530;37.974;23.708;2023-05-17T05:46:18;26.40;36.20
80212;DHT22;69530;37.974;23.708;2023-05-17T05:48:43;26.40;36.30
80212;DHT22;69530;37.974;23.708;2023-05-17T05:51:09;26.40;36.40
80212;DHT22;69530;37.974;23.708;2023-05-17T05:53:35;26.40;36.30
80212;DHT22;69530;37.974;23.708;2023-05-17T05:56:01;26.40;37.40
80212;DHT22;69530;37.974;23.708;2023-05-17T05:58:28;26.30;36.30
80212;DHT22;69530;37.974;23.708;2023-05-17T06:00:54;26.30;36.30
80212;DHT22;69530;37.974;23.708;2023-05-17T06:03:21;26.30;36.30
80212;DHT22;69530;37.974;23.708;2023-05-17T06:05:47;26.30;36.30
80212;DHT22;69530;37.974;23.708;2023-05-17T06:08:13;26.30;36.30
80212;DHT22;69530;37.974;23.708;2023-05-17T06:10:39;26.30;36.20
80212;DHT22;69530;37.974;23.708;2023-05-17T06:13:04;26.30;36.20
80212;DHT22;69530;37.974;23.708;2023-05-17T06:15:30;26.30;36.20
80212;DHT22;69530;37.974;23.708;2023-05-17T06:17:56;26.30;36.20
80212;DHT22;69530;37.974;23.708;2023-05-17T06:20:22;26.30;36.20
80212;DHT22;69530;37.974;23.708;2023-05-17T06:22:48;26.30;36.20
80212;DHT22;69530;37.974;23.708;2023-05-17T06:25:13;26.30;36.20
80212;DHT22;69530;37.974;23.708;2023-05-17T06:27:39;26.20;36.00
80212;DHT22;69530;37.974;23.708;2023-05-17T06:30:05;26.30;36.10
80212;DHT22;69530;37.974;23.708;2023-05-17T06:32:31;26.20;36.10
80212;DHT22;69530;37.974;23.708;2023-05-17T06:34:57;26.20;36.00
80212;DHT22;69530;37.974;23.708;2023-05-17T06:37:23;26.10;35.90
80212;DHT22;69530;37.974;23.708;2023-05-17T06:39:51;26.20;36.10
80212;DHT22;69530;37.974;23.708;2023-05-17T06:42:17;26.10;36.10
80212;DHT22;69530;37.974;23.708;2023-05-17T06:44:43;26.10;36.20
80212;DHT22;69530;37.974;23.708;2023-05-17T06:47:09;26.10;36.20
80212;DHT22;69530;37.974;23.708;2023-05-17T06:49:36;26.10;36.30
80212;DHT22;69530;37.974;23.708;2023-05-17T06:52:02;26.20;36.40
80212;DHT22;69530;37.974;23.708;2023-05-17T06:54:30;26.10;36.50
80212;DHT22;69530;37.974;23.708;2023-05-17T06:57:02;26.10;36.60
80212;DHT22;69530;37.974;23.708;2023-05-17T06:59:28;26.10;36.80
80212;DHT22;69530;37.974;23.708;2023-05-17T07:01:53;26.00;36.90
80212;DHT22;69530;37.974;23.708;2023-05-17T07:04:19;26.00;37.10
80212;DHT22;69530;37.974;23.708;2023-05-17T07:06:45;26.00;37.00
80212;DHT22;69530;37.974;23.708;2023-05-17T07:09:11;26.00;37.10
80212;DHT22;69530;37.974;23.708;2023-05-17T07:11:37;26.00;37.10
80212;DHT22;69530;37.974;23.708;2023-05-17T07:14:03;26.10;37.20
80212;DHT22;69530;37.974;23.708;2023-05-17T07:16:29;26.10;37.20
80212;DHT22;69530;37.974;23.708;2023-05-17T07:18:55;26.10;36.30
80212;DHT22;69530;37.974;23.708;2023-05-17T07:21:22;26.10;37.10
80212;DHT22;69530;37.974;23.708;2023-05-17T07:23:49;26.10;37.10
80212;DHT22;69530;37.974;23.708;2023-05-17T07:26:17;26.10;37.10
80212;DHT22;69530;37.974;23.708;2023-05-17T07:28:43;26.10;37.30
80212;DHT22;69530;37.974;23.708;2023-05-17T07:31:09;26.00;37.10
80212;DHT22;69530;37.974;23.708;2023-05-17T07:33:36;26.00;37.30
80212;DHT22;69530;37.974;23.708;2023-05-17T07:36:02;26.00;37.10
80212;DHT22;69530;37.974;23.708;2023-05-17T07:38:28;26.10;36.90
80212;DHT22;69530;37.974;23.708;2023-05-17T07:40:53;26.00;37.00
80212;DHT22;69530;37.974;23.708;2023-05-17T07:43:19;26.00;36.90
80212;DHT22;69530;37.974;23.708;2023-05-17T07:45:45;26.00;36.90
80212;DHT22;69530;37.974;23.708;2023-05-17T07:48:11;26.10;36.90
80212;DHT22;69530;37.974;23.708;2023-05-17T07:50:37;26.00;36.90
80212;DHT22;69530;37.974;23.708;2023-05-17T07:53:03;26.00;36.80
80212;DHT22;69530;37.974;23.708;2023-05-17T07:55:29;26.10;36.60
80212;DHT22;69530;37.974;23.708;2023-05-17T07:57:55;26.10;36.60
80212;DHT22;69530;37.974;23.708;2023-05-17T08:00:21;26.10;36.60
80212;DHT22;69530;37.974;23.708;2023-05-17T08:02:47;26.10;36.60
80212;DHT22;69530;37.974;23.708;2023-05-17T08:05:13;26.00;36.60
80212;DHT22;69530;37.974;23.708;2023-05-17T08:07:39;26.00;36.60
80212;DHT22;69530;37.974;23.708;2023-05-17T08:10:05;26.00;36.60
80212;DHT22;69530;37.974;23.708;2023-05-17T08:12:31;26.00;36.70
80212;DHT22;69530;37.974;23.708;2023-05-17T08:14:57;26.00;36.50
80212;DHT22;69530;37.974;23.708;2023-05-17T08:17:22;26.00;36.50
80212;DHT22;69530;37.974;23.708;2023-05-17T08:19:48;26.00;36.50
80212;DHT22;69530;37.974;23.708;2023-05-17T08:22:14;26.00;36.50
80212;DHT22;69530;37.974;23.708;2023-05-17T08:24:40;26.00;36.40
80212;DHT22;69530;37.974;23.708;2023-05-17T08:27:06;26.00;36.30
80212;DHT22;69530;37.974;23.708;2023-05-17T08:29:31;26.00;36.40
80212;DHT22;69530;37.974;23.708;2023-05-17T08:31:57;25.90;36.30
80212;DHT22;69530;37.974;23.708;2023-05-17T08:34:23;26.00;36.40
80212;DHT22;69530;37.974;23.708;2023-05-17T08:36:48;25.90;36.30
80212;DHT22;69530;37.974;23.708;2023-05-17T08:39:14;25.90;36.20
80212;DHT22;69530;37.974;23.708;2023-05-17T08:41:40;25.90;36.10
80212;DHT22;69530;37.974;23.708;2023-05-17T08:44:06;25.90;37.10
80212;DHT22;69530;37.974;23.708;2023-05-17T08:46:34;25.90;36.00
80212;DHT22;69530;37.974;23.708;2023-05-17T08:49:02;25.90;36.00
80212;DHT22;69530;37.974;23.708;2023-05-17T08:51:30;25.90;36.00
80212;DHT22;69530;37.974;23.708;2023-05-17T08:53:57;25.90;36.00
80212;DHT22;69530;37.974;23.708;2023-05-17T08:56:25;25.90;35.90
80212;DHT22;69530;37.974;23.708;2023-05-17T08:58:54;25.90;35.90
80212;DHT22;69530;37.974;23.708;2023-05-17T09:01:21;25.80;35.80
80212;DHT22;69530;37.974;23.708;2023-05-17T09:03:48;25.90;35.90
80212;DHT22;69530;37.974;23.708;2023-05-17T09:06:20;25.90;35.80
80212;DHT22;69530;37.974;23.708;2023-05-17T09:08:46;25.90;35.70
80212;DHT22;69530;37.974;23.708;2023-05-17T09:11:12;25.90;35.30
80212;DHT22;69530;37.974;23.708;2023-05-17T09:13:47;25.90;35.30
80212;DHT22;69530;37.974;23.708;2023-05-17T09:16:13;25.90;35.20
80212;DHT22;69530;37.974;23.708;2023-05-17T09:18:40;25.80;35.10
80212;DHT22;69530;37.974;23.708;2023-05-17T09:21:05;25.80;34.90
80212;DHT22;69530;37.974;23.708;2023-05-17T09:23:31;25.80;34.70
80212;DHT22;69530;37.974;23.708;2023-05-17T09:26:06;25.80;34.60
80212;DHT22;69530;37.974;23.708;2023-05-17T09:28:39;25.80;34.50
80212;DHT22;69530;37.974;23.708;2023-05-17T09:31:09;25.80;34.40
80212;DHT22;69530;37.974;23.708;2023-05-17T09:33:49;25.80;34.10
80212;DHT22;69530;37.974;23.708;2023-05-17T09:36:19;25.80;33.20
80212;DHT22;69530;37.974;23.708;2023-05-17T09:39:11;25.70;32.40
80212;DHT22;69530;37.974;23.708;2023-05-17T09:41:43;25.70;32.70
80212;DHT22;69530;37.974;23.708;2023-05-17T09:44:11;25.70;32.70
80212;DHT22;69530;37.974;23.708;2023-05-17T09:46:44;25.70;32.90
80212;DHT22;69530;37.974;23.708;2023-05-17T09:49:12;25.70;32.80
80212;DHT22;69530;37.974;23.708;2023-05-17T09:51:40;25.70;32.80
80212;DHT22;69530;37.974;23.708;2023-05-17T09:54:09;25.70;32.70
80212;DHT22;69530;37.974;23.708;2023-05-17T09:56:36;25.70;32.70
80212;DHT22;69530;37.974;23.708;2023-05-17T09:59:03;25.60;32.10
80212;DHT22;69530;37.974;23.708;2023-05-17T10:01:30;25.60;31.70
80212;DHT22;69530;37.974;23.708;2023-05-17T10:04:00;25.70;31.40
80212;DHT22;69530;37.974;23.708;2023-05-17T10:06:29;25.70;31.70
80212;DHT22;69530;37.974;23.708;2023-05-17T10:08:57;25.70;31.70
80212;DHT22;69530;37.974;23.708;2023-05-17T10:11:28;25.70;31.70
80212;DHT22;69530;37.974;23.708;2023-05-17T10:14:22;25.70;31.90
80212;DHT22;69530;37.974;23.708;2023-05-17T10:16:52;25.70;31.60
80212;DHT22;69530;37.974;23.708;2023-05-17T10:19:19;25.70;31.80
80212;DHT22;69530;37.974;23.708;2023-05-17T10:21:46;25.70;31.60
80212;DHT22;69530;37.974;23.708;2023-05-17T10:24:13;25.70;31.60
80212;DHT22;69530;37.974;23.708;2023-05-17T10:26:39;25.70;31.40
80212;DHT22;69530;37.974;23.708;2023-05-17T10:29:06;25.70;31.60
80212;DHT22;69530;37.974;23.708;2023-05-17T10:31:32;25.70;31.60
80212;DHT22;69530;37.974;23.708;2023-05-17T10:34:03;25.70;31.40
80212;DHT22;69530;37.974;23.708;2023-05-17T10:36:29;25.80;31.20
80212;DHT22;69530;37.974;23.708;2023-05-17T10:38:57;25.80;31.50
80212;DHT22;69530;37.974;23.708;2023-05-17T10:41:26;25.80;31.80
80212;DHT22;69530;37.974;23.708;2023-05-17T10:43:53;25.70;31.60
80212;DHT22;69530;37.974;23.708;2023-05-17T10:46:22;25.70;31.70
80212;DHT22;69530;37.974;23.708;2023-05-17T10:48:52;25.70;31.60
80212;DHT22;69530;37.974;23.708;2023-05-17T10:51:33;25.70;31.60
80212;DHT22;69530;37.974;23.708;2023-05-17T10:56:54;25.80;31.00
80212;DHT22;69530;37.974;23.708;2023-05-17T10:59:24;25.80;31.10
80212;DHT22;69530;37.974;23.708;2023-05-17T11:12:16;25.70;30.20
80212;DHT22;69530;37.974;23.708;2023-05-17T11:14:52;25.70;30.20
80212;DHT22;69530;37.974;23.708;2023-05-17T11:17:23;25.70;30.50
80212;DHT22;69530;37.974;23.708;2023-05-17T11:22:27;25.70;30.20
80212;DHT22;69530;37.974;23.708;2023-05-17T11:24:55;25.70;30.20
80212;DHT22;69530;37.974;23.708;2023-05-17T11:27:22;25.70;30.00
80212;DHT22;69530;37.974;23.708;2023-05-17T11:29:55;25.70;30.00
80212;DHT22;69530;37.974;23.708;2023-05-17T11:32:31;25.70;29.90
